sensor_id;sensor_type;location;lat;lon;timestamp;pressure;altitude;pressure_sealevel;temperature;humidity
82986;BME280;72786;53.546;9.910;2023-12-29T00:02:06;99763.75;;;10.28;86.89
82986;BME280;72786;53.546;9.910;2023-12-29T00:04:32;99797.16;;;10.40;89.05
82986;BME280;72786;53.546;9.910;2023-12-29T00:06:59;99740.75;;;9.97;90.79
82986;BME280;72786;53.546;9.910;2023-12-29T00:09:28;99783.53;;;10.08;91.48
82986;BME280;72786;53.546;9.910;2023-12-29T00:11:55;99784.34;;;9.97;91.34
82986;BME280;72786;53.546;9.910;2023-12-29T00:14:21;99712.34;;;9.51;91.66
82986;BME280;72786;53.546;9.910;2023-12-29T00:16:48;99780.66;;;9.93;92.20
82986;BME280;72786;53.546;9.910;2023-12-29T00:19:14;99780.56;;;9.92;92.32
82986;BME280;72786;53.546;9.910;2023-12-29T00:21:41;99734.03;;;9.66;92.23
82986;BME280;72786;53.546;9.910;2023-12-29T00:24:08;99762.59;;;9.92;91.18
82986;BME280;72786;53.546;9.910;2023-12-29T00:26:35;99771.16;;;9.92;91.91
82986;BME280;72786;53.546;9.910;2023-12-29T00:29:01;99697.03;;;9.63;91.44
82986;BME280;72786;53.546;9.910;2023-12-29T00:31:28;99724.31;;;9.83;90.63
82986;BME280;72786;53.546;9.910;2023-12-29T00:33:56;99752.28;;;10.02;90.12
82986;BME280;72786;53.546;9.910;2023-12-29T00:36:23;99652.13;;;9.56;90.55
82986;BME280;72786;53.546;9.910;2023-12-29T00:38:50;99734.13;;;9.99;89.58
82986;BME280;72786;53.546;9.910;2023-12-29T00:41:16;99724.53;;;10.08;89.46
82986;BME280;72786;53.546;9.910;2023-12-29T00:43:43;99739.63;;;10.15;89.16
82986;BME280;72786;53.546;9.910;2023-12-29T00:46:14;99735.75;;;10.20;89.08
82986;BME280;72786;53.546;9.910;2023-12-29T00:48:41;99734.41;;;10.25;87.59
82986;BME280;72786;53.546;9.910;2023-12-29T00:51:08;99731.06;;;10.26;88.85
82986;BME280;72786;53.546;9.910;2023-12-29T00:53:35;99696.09;;;10.05;88.32
82986;BME280;72786;53.546;9.910;2023-12-29T00:56:02;99720.25;;;10.30;87.54
82986;BME280;72786;53.546;9.910;2023-12-29T00:58:28;99708.00;;;10.37;87.12
82986;BME280;72786;53.546;9.910;2023-12-29T01:00:55;99712.47;;;10.40;86.05
82986;BME280;72786;53.546;9.910;2023-12-29T01:03:21;99711.38;;;10.48;85.65
82986;BME280;72786;53.546;9.910;2023-12-29T01:05:51;99642.28;;;10.28;85.29
82986;BME280;72786;53.546;9.910;2023-12-29T01:08:18;99713.38;;;10.52;85.58
82986;BME280;72786;53.546;9.910;2023-12-29T01:10:44;99654.88;;;10.25;85.67
82986;BME280;72786;53.546;9.910;2023-12-29T01:13:11;99607.13;;;10.04;86.19
82986;BME280;72786;53.546;9.910;2023-12-29T01:15:37;99711.16;;;10.56;86.27
82986;BME280;72786;53.546;9.910;2023-12-29T01:18:04;99711.81;;;10.53;87.75
82986;BME280;72786;53.546;9.910;2023-12-29T01:20:31;99710.03;;;10.52;87.81
82986;BME280;72786;53.546;9.910;2023-12-29T01:22:58;99721.19;;;10.42;88.54
82986;BME280;72786;53.546;9.910;2023-12-29T01:25:24;99670.16;;;10.12;88.84
82986;BME280;72786;53.546;9.910;2023-12-29T01:27:51;99708.69;;;10.35;89.97
82986;BME280;72786;53.546;9.910;2023-12-29T01:30:17;99706.44;;;10.28;89.53
82986;BME280;72786;53.546;9.910;2023-12-29T01:32:44;99711.06;;;10.22;88.96
82986;BME280;72786;53.546;9.910;2023-12-29T01:35:10;99733.41;;;10.23;90.17
82986;BME280;72786;53.546;9.910;2023-12-29T01:37:37;99718.44;;;10.29;89.55
82986;BME280;72786;53.546;9.910;2023-12-29T01:40:04;99713.31;;;10.29;89.82
82986;BME280;72786;53.546;9.910;2023-12-29T01:42:31;99685.97;;;10.18;88.58
82986;BME280;72786;53.546;9.910;2023-12-29T01:44:57;99662.88;;;10.06;88.82
82986;BME280;72786;53.546;9.910;2023-12-29T01:47:24;99691.50;;;10.34;88.27
82986;BME280;72786;53.546;9.910;2023-12-29T01:49:51;99693.06;;;10.43;87.71
82986;BME280;72786;53.546;9.910;2023-12-29T01:52:19;99711.13;;;10.45;87.33
82986;BME280;72786;53.546;9.910;2023-12-29T01:54:47;99644.03;;;10.29;87.01
82986;BME280;72786;53.546;9.910;2023-12-29T01:57:15;99662.03;;;10.52;87.17
82986;BME280;72786;53.546;9.910;2023-12-29T01:59:42;99637.69;;;10.24;87.17
82986;BME280;72786;53.546;9.910;2023-12-29T02:02:11;99632.56;;;10.24;86.68
82986;BME280;72786;53.546;9.910;2023-12-29T02:04:40;99625.53;;;10.21;87.73
82986;BME280;72786;53.546;9.910;2023-12-29T02:07:07;99617.16;;;10.24;87.32
82986;BME280;72786;53.546;9.910;2023-12-29T02:09:34;99670.50;;;10.51;86.49
82986;BME280;72786;53.546;9.910;2023-12-29T02:12:02;99660.69;;;10.56;86.61
82986;BME280;72786;53.546;9.910;2023-12-29T02:14:28;99651.00;;;10.52;87.36
82986;BME280;72786;53.546;9.910;2023-12-29T02:17:03;99666.28;;;10.62;86.99
82986;BME280;72786;53.546;9.910;2023-12-29T02:19:42;99675.53;;;10.60;86.07
82986;BME280;72786;53.546;9.910;2023-12-29T02:22:14;99665.63;;;10.53;86.83
82986;BME280;72786;53.546;9.910;2023-12-29T02:24:48;99658.47;;;10.61;86.98
82986;BME280;72786;53.546;9.910;2023-12-29T02:27:41;99656.56;;;10.58;86.37
82986;BME280;72786;53.546;9.910;2023-12-29T02:30:32;99645.41;;;10.58;86.52
82986;BME280;72786;53.546;9.910;2023-12-29T02:33:05;99634.25;;;10.57;86.23
82986;BME280;72786;53.546;9.910;2023-12-29T02:35:35;99627.78;;;10.51;86.50
82986;BME280;72786;53.546;9.910;2023-12-29T02:38:04;99623.19;;;10.58;86.35
82986;BME280;72786;53.546;9.910;2023-12-29T02:40:30;99635.50;;;10.62;85.59
82986;BME280;72786;53.546;9.910;2023-12-29T02:42:57;99635.25;;;10.71;85.18
82986;BME280;72786;53.546;9.910;2023-12-29T02:45:23;99624.28;;;10.73;85.36
82986;BME280;72786;53.546;9.910;2023-12-29T02:47:50;99616.94;;;10.66;84.58
82986;BME280;72786;53.546;9.910;2023-12-29T02:50:17;99598.84;;;10.76;85.04
82986;BME280;72786;53.546;9.910;2023-12-29T02:52:44;99578.53;;;10.56;84.71
82986;BME280;72786;53.546;9.910;2023-12-29T02:55:11;99582.22;;;10.60;84.80
82986;BME280;72786;53.546;9.910;2023-12-29T02:57:38;99578.88;;;10.61;84.76
82986;BME280;72786;53.546;9.910;2023-12-29T03:00:05;99606.41;;;10.86;84.14
82986;BME280;72786;53.546;9.910;2023-12-29T03:02:32;99544.53;;;10.59;83.42
82986;BME280;72786;53.546;9.910;2023-12-29T03:04:59;99620.25;;;10.88;83.56
82986;BME280;72786;53.546;9.910;2023-12-29T03:07:25;99566.81;;;10.71;82.70
82986;BME280;72786;53.546;9.910;2023-12-29T03:09:52;99614.91;;;10.85;83.01
82986;BME280;72786;53.546;9.910;2023-12-29T03:12:18;99616.22;;;10.92;83.07
82986;BME280;72786;53.546;9.910;2023-12-29T03:14:45;99562.50;;;10.59;84.77
82986;BME280;72786;53.546;9.910;2023-12-29T03:17:13;99581.25;;;10.47;87.79
82986;BME280;72786;53.546;9.910;2023-12-29T03:19:39;99585.50;;;10.35;88.32
82986;BME280;72786;53.546;9.910;2023-12-29T03:22:06;99575.34;;;10.25;90.16
82986;BME280;72786;53.546;9.910;2023-12-29T03:24:34;99599.78;;;10.20;89.95
82986;BME280;72786;53.546;9.910;2023-12-29T03:27:02;99594.19;;;10.14;90.15
82986;BME280;72786;53.546;9.910;2023-12-29T03:29:28;99591.31;;;10.09;89.24
82986;BME280;72786;53.546;9.910;2023-12-29T03:31:55;99599.44;;;10.15;88.85
82986;BME280;72786;53.546;9.910;2023-12-29T03:34:21;99597.31;;;10.10;88.67
82986;BME280;72786;53.546;9.910;2023-12-29T03:36:48;99593.72;;;10.08;88.65
82986;BME280;72786;53.546;9.910;2023-12-29T03:39:15;99598.50;;;10.03;88.98
82986;BME280;72786;53.546;9.910;2023-12-29T03:41:41;99584.56;;;10.00;89.58
82986;BME280;72786;53.546;9.910;2023-12-29T03:44:08;99582.69;;;10.09;88.67
82986;BME280;72786;53.546;9.910;2023-12-29T03:46:34;99569.09;;;10.10;88.86
82986;BME280;72786;53.546;9.910;2023-12-29T03:49:01;99570.31;;;10.15;89.35
82986;BME280;72786;53.546;9.910;2023-12-29T03:51:28;99565.66;;;10.21;89.08
82986;BME280;72786;53.546;9.910;2023-12-29T03:53:55;99586.38;;;10.24;88.71
82986;BME280;72786;53.546;9.910;2023-12-29T03:56:21;99603.91;;;10.18;89.64
82986;BME280;72786;53.546;9.910;2023-12-29T03:58:48;99603.78;;;10.16;89.93
82986;BME280;72786;53.546;9.910;2023-12-29T04:01:15;99601.09;;;10.15;90.38
82986;BME280;72786;53.546;9.910;2023-12-29T04:03:44;99604.34;;;10.12;90.62
82986;BME280;72786;53.546;9.910;2023-12-29T04:06:11;99606.91;;;10.12;90.81
82986;BME280;72786;53.546;9.910;2023-12-29T04:08:38;99616.88;;;9.86;92.06
82986;BME280;72786;53.546;9.910;2023-12-29T04:11:05;99616.72;;;9.41;92.55
82986;BME280;72786;53.546;9.910;2023-12-29T04:13:32;99672.06;;;9.60;91.43
82986;BME280;72786;53.546;9.910;2023-12-29T04:15:58;99680.00;;;9.42;89.39
82986;BME280;72786;53.546;9.910;2023-12-29T04:18:25;99696.31;;;9.11;90.73
82986;BME280;72786;53.546;9.910;2023-12-29T04:20:52;99732.06;;;9.00;92.02
82986;BME280;72786;53.546;9.910;2023-12-29T04:23:18;99712.19;;;8.66;92.40
82986;BME280;72786;53.546;9.910;2023-12-29T04:25:45;99670.34;;;8.14;91.54
82986;BME280;72786;53.546;9.910;2023-12-29T04:28:12;99655.50;;;8.10;92.17
82986;BME280;72786;53.546;9.910;2023-12-29T04:30:38;99643.25;;;7.96;92.01
82986;BME280;72786;53.546;9.910;2023-12-29T04:33:06;99557.16;;;7.46;92.98
82986;BME280;72786;53.546;9.910;2023-12-29T04:35:32;99622.41;;;8.02;94.19
82986;BME280;72786;53.546;9.910;2023-12-29T04:37:59;99622.78;;;7.96;93.29
82986;BME280;72786;53.546;9.910;2023-12-29T04:40:27;99610.53;;;7.82;93.44
82986;BME280;72786;53.546;9.910;2023-12-29T04:42:53;99637.41;;;7.87;92.23
82986;BME280;72786;53.546;9.910;2023-12-29T04:45:20;99652.19;;;7.91;93.93
82986;BME280;72786;53.546;9.910;2023-12-29T04:47:47;99585.78;;;7.61;92.99
82986;BME280;72786;53.546;9.910;2023-12-29T04:50:13;99641.59;;;7.87;93.30
82986;BME280;72786;53.546;9.910;2023-12-29T04:52:40;99597.94;;;7.54;95.18
82986;BME280;72786;53.546;9.910;2023-12-29T04:55:06;99646.56;;;7.75;94.09
82986;BME280;72786;53.546;9.910;2023-12-29T04:57:33;99613.63;;;7.68;94.81
82986;BME280;72786;53.546;9.910;2023-12-29T05:00:00;99618.72;;;7.68;94.79
82986;BME280;72786;53.546;9.910;2023-12-29T05:02:26;99604.16;;;7.67;95.57
82986;BME280;72786;53.546;9.910;2023-12-29T05:04:53;99569.31;;;7.58;94.64
82986;BME280;72786;53.546;9.910;2023-12-29T05:07:19;99615.88;;;7.95;94.54
82986;BME280;72786;53.546;9.910;2023-12-29T05:09:46;99568.94;;;7.63;94.97
82986;BME280;72786;53.546;9.910;2023-12-29T05:12:12;99622.41;;;8.02;95.71
82986;BME280;72786;53.546;9.910;2023-12-29T05:14:39;99624.69;;;8.09;95.63
82986;BME280;72786;53.546;9.910;2023-12-29T05:17:05;99613.59;;;8.08;95.07
82986;BME280;72786;53.546;9.910;2023-12-29T05:19:31;99607.94;;;8.02;94.39
82986;BME280;72786;53.546;9.910;2023-12-29T05:21:58;99612.03;;;8.10;94.16
82986;BME280;72786;53.546;9.910;2023-12-29T05:24:25;99613.59;;;8.08;94.69
82986;BME280;72786;53.546;9.910;2023-12-29T05:26:51;99624.69;;;8.09;95.09
82986;BME280;72786;53.546;9.910;2023-12-29T05:29:17;99612.78;;;8.09;93.92
82986;BME280;72786;53.546;9.910;2023-12-29T05:31:44;99618.94;;;8.11;94.76
82986;BME280;72786;53.546;9.910;2023-12-29T05:34:11;99531.75;;;7.57;94.65
82986;BME280;72786;53.546;9.910;2023-12-29T05:36:37;99582.44;;;7.82;94.08
82986;BME280;72786;53.546;9.910;2023-12-29T05:39:05;99637.38;;;8.07;94.73
82986;BME280;72786;53.546;9.910;2023-12-29T05:41:32;99601.09;;;8.01;94.64
82986;BME280;72786;53.546;9.910;2023-12-29T05:43:59;99626.16;;;8.15;94.83
82986;BME280;72786;53.546;9.910;2023-12-29T05:46:27;99625.06;;;8.23;94.53
82986;BME280;72786;53.546;9.910;2023-12-29T05:48:53;99621.00;;;8.25;94.81
82986;BME280;72786;53.546;9.910;2023-12-29T05:51:20;99622.66;;;8.25;93.95
82986;BME280;72786;53.546;9.910;2023-12-29T05:53:46;99614.34;;;8.27;93.84
82986;BME280;72786;53.546;9.910;2023-12-29T05:56:13;99627.22;;;8.38;93.63
82986;BME280;72786;53.546;9.910;2023-12-29T05:58:41;99619.44;;;8.37;94.03
82986;BME280;72786;53.546;9.910;2023-12-29T06:01:09;99637.84;;;8.43;94.31
82986;BME280;72786;53.546;9.910;2023-12-29T06:03:35;99616.31;;;8.51;94.27
82986;BME280;72786;53.546;9.910;2023-12-29T06:06:02;99615.81;;;8.45;94.68
82986;BME280;72786;53.546;9.910;2023-12-29T06:08:29;99575.44;;;8.31;94.14
82986;BME280;72786;53.546;9.910;2023-12-29T06:10:55;99634.56;;;8.65;93.73
82986;BME280;72786;53.546;9.910;2023-12-29T06:13:22;99632.38;;;8.70;93.77
82986;BME280;72786;53.546;9.910;2023-12-29T06:15:48;99634.38;;;8.74;93.96
82986;BME280;72786;53.546;9.910;2023-12-29T06:18:15;99618.09;;;8.52;94.47
82986;BME280;72786;53.546;9.910;2023-12-29T06:20:41;99653.72;;;8.70;94.49
82986;BME280;72786;53.546;9.910;2023-12-29T06:23:08;99653.56;;;8.79;94.26
82986;BME280;72786;53.546;9.910;2023-12-29T06:25:34;99645.38;;;8.73;94.15
82986;BME280;72786;53.546;9.910;2023-12-29T06:28:01;99644.38;;;8.71;94.75
82986;BME280;72786;53.546;9.910;2023-12-29T06:30:30;99659.97;;;8.74;95.07
82986;BME280;72786;53.546;9.910;2023-12-29T06:32:56;99616.44;;;8.52;94.67
82986;BME280;72786;53.546;9.910;2023-12-29T06:35:22;99607.09;;;8.53;95.06
82986;BME280;72786;53.546;9.910;2023-12-29T06:37:49;99640.25;;;8.73;95.38
82986;BME280;72786;53.546;9.910;2023-12-29T06:40:16;99646.94;;;8.71;94.76
82986;BME280;72786;53.546;9.910;2023-12-29T06:42:43;99652.84;;;8.70;95.26
82986;BME280;72786;53.546;9.910;2023-12-29T06:45:09;99651.91;;;8.69;94.57
82986;BME280;72786;53.546;9.910;2023-12-29T06:47:36;99659.19;;;8.75;94.77
82986;BME280;72786;53.546;9.910;2023-12-29T06:50:03;99663.56;;;8.76;95.08
82986;BME280;72786;53.546;9.910;2023-12-29T06:52:30;99666.38;;;8.79;95.10
82986;BME280;72786;53.546;9.910;2023-12-29T06:55:00;99615.13;;;8.57;94.11
82986;BME280;72786;53.546;9.910;2023-12-29T06:57:28;99662.72;;;8.87;94.54
82986;BME280;72786;53.546;9.910;2023-12-29T06:59:54;99666.31;;;8.89;93.90
82986;BME280;72786;53.546;9.910;2023-12-29T07:02:21;99658.13;;;8.93;93.62
82986;BME280;72786;53.546;9.910;2023-12-29T07:04:47;99552.94;;;8.37;93.29
82986;BME280;72786;53.546;9.910;2023-12-29T07:07:14;99653.88;;;8.93;92.43
82986;BME280;72786;53.546;9.910;2023-12-29T07:09:40;99653.69;;;9.01;92.42
82986;BME280;72786;53.546;9.910;2023-12-29T07:12:07;99657.53;;;9.06;92.56
82986;BME280;72786;53.546;9.910;2023-12-29T07:14:33;99661.91;;;9.07;92.00
82986;BME280;72786;53.546;9.910;2023-12-29T07:17:02;99649.56;;;9.13;92.02
82986;BME280;72786;53.546;9.910;2023-12-29T07:19:29;99651.09;;;9.11;91.68
82986;BME280;72786;53.546;9.910;2023-12-29T07:22:04;99651.34;;;9.14;91.38
82986;BME280;72786;53.546;9.910;2023-12-29T07:24:34;99656.69;;;9.17;91.55
82986;BME280;72786;53.546;9.910;2023-12-29T07:27:02;99637.06;;;9.06;90.76
82986;BME280;72786;53.546;9.910;2023-12-29T07:29:29;99651.06;;;9.21;91.11
82986;BME280;72786;53.546;9.910;2023-12-29T07:31:55;99644.66;;;9.16;91.17
82986;BME280;72786;53.546;9.910;2023-12-29T07:34:22;99650.16;;;9.21;90.81
82986;BME280;72786;53.546;9.910;2023-12-29T07:36:49;99601.22;;;9.06;90.63
82986;BME280;72786;53.546;9.910;2023-12-29T07:39:15;99635.41;;;9.28;90.91
82986;BME280;72786;53.546;9.910;2023-12-29T07:41:42;99634.44;;;9.38;90.64
82986;BME280;72786;53.546;9.910;2023-12-29T07:44:12;99629.81;;;9.34;90.53
82986;BME280;72786;53.546;9.910;2023-12-29T07:46:40;99637.09;;;9.39;89.52
82986;BME280;72786;53.546;9.910;2023-12-29T07:49:06;99575.59;;;9.06;89.54
82986;BME280;72786;53.546;9.910;2023-12-29T07:51:33;99647.47;;;9.41;89.72
82986;BME280;72786;53.546;9.910;2023-12-29T07:54:00;99602.16;;;9.18;89.52
82986;BME280;72786;53.546;9.910;2023-12-29T07:56:26;99636.84;;;9.36;89.02
82986;BME280;72786;53.546;9.910;2023-12-29T07:58:53;99657.53;;;9.49;89.19
82986;BME280;72786;53.546;9.910;2023-12-29T08:01:19;99610.66;;;9.29;88.62
82986;BME280;72786;53.546;9.910;2023-12-29T08:03:46;99618.91;;;9.36;87.95
82986;BME280;72786;53.546;9.910;2023-12-29T08:06:13;99639.06;;;9.53;88.32
82986;BME280;72786;53.546;9.910;2023-12-29T08:08:39;99626.00;;;9.50;87.20
82986;BME280;72786;53.546;9.910;2023-12-29T08:11:13;99643.81;;;9.70;87.27
82986;BME280;72786;53.546;9.910;2023-12-29T08:13:39;99636.88;;;9.69;87.69
82986;BME280;72786;53.546;9.910;2023-12-29T08:16:06;99647.13;;;9.69;86.98
82986;BME280;72786;53.546;9.910;2023-12-29T08:18:34;99619.25;;;9.62;86.71
82986;BME280;72786;53.546;9.910;2023-12-29T08:21:02;99637.00;;;9.71;86.62
82986;BME280;72786;53.546;9.910;2023-12-29T08:23:29;99635.09;;;9.68;86.17
82986;BME280;72786;53.546;9.910;2023-12-29T08:25:57;99639.81;;;9.74;86.08
82986;BME280;72786;53.546;9.910;2023-12-29T08:28:24;99636.78;;;9.68;86.08
82986;BME280;72786;53.546;9.910;2023-12-29T08:30:51;99626.63;;;9.69;85.56
82986;BME280;72786;53.546;9.910;2023-12-29T08:33:18;99636.69;;;9.77;84.85
82986;BME280;72786;53.546;9.910;2023-12-29T08:35:45;99583.13;;;9.59;84.45
82986;BME280;72786;53.546;9.910;2023-12-29T08:38:12;99640.50;;;9.94;83.86
82986;BME280;72786;53.546;9.910;2023-12-29T08:40:40;99637.06;;;9.93;83.28
82986;BME280;72786;53.546;9.910;2023-12-29T08:43:06;99652.50;;;10.05;84.14
82986;BME280;72786;53.546;9.910;2023-12-29T08:45:33;99643.22;;;10.07;82.87
82986;BME280;72786;53.546;9.910;2023-12-29T08:47:59;99657.78;;;10.18;83.13
82986;BME280;72786;53.546;9.910;2023-12-29T08:50:26;99610.50;;;9.93;82.33
82986;BME280;72786;53.546;9.910;2023-12-29T08:52:53;99645.72;;;10.17;82.58
82986;BME280;72786;53.546;9.910;2023-12-29T08:55:19;99601.66;;;10.11;82.68
82986;BME280;72786;53.546;9.910;2023-12-29T08:57:46;99650.22;;;10.53;82.40
82986;BME280;72786;53.546;9.910;2023-12-29T09:00:12;99626.22;;;10.42;81.86
82986;BME280;72786;53.546;9.910;2023-12-29T09:02:39;99661.59;;;10.46;83.85
82986;BME280;72786;53.546;9.910;2023-12-29T09:05:06;99672.97;;;10.38;86.34
82986;BME280;72786;53.546;9.910;2023-12-29T09:07:33;99672.25;;;10.06;88.82
82986;BME280;72786;53.546;9.910;2023-12-29T09:10:00;99682.88;;;9.89;90.70
82986;BME280;72786;53.546;9.910;2023-12-29T09:12:28;99684.03;;;9.50;90.50
82986;BME280;72786;53.546;9.910;2023-12-29T09:14:55;99677.44;;;9.20;91.60
82986;BME280;72786;53.546;9.910;2023-12-29T09:17:21;99675.09;;;9.02;93.41
82986;BME280;72786;53.546;9.910;2023-12-29T09:19:48;99688.66;;;8.70;93.74
82986;BME280;72786;53.546;9.910;2023-12-29T09:22:25;99689.06;;;8.64;95.88
82986;BME280;72786;53.546;9.910;2023-12-29T09:24:53;99640.63;;;8.46;95.87
82986;BME280;72786;53.546;9.910;2023-12-29T09:27:20;99682.78;;;8.71;96.46
82986;BME280;72786;53.546;9.910;2023-12-29T09:29:46;99650.34;;;8.50;96.35
82986;BME280;72786;53.546;9.910;2023-12-29T09:32:13;99683.94;;;8.64;95.49
82986;BME280;72786;53.546;9.910;2023-12-29T09:34:39;99704.25;;;8.73;95.41
82986;BME280;72786;53.546;9.910;2023-12-29T09:37:06;99730.97;;;8.76;95.23
82986;BME280;72786;53.546;9.910;2023-12-29T09:39:32;99701.41;;;8.80;96.21
82986;BME280;72786;53.546;9.910;2023-12-29T09:41:59;99709.88;;;8.79;95.95
82986;BME280;72786;53.546;9.910;2023-12-29T09:44:31;99707.31;;;8.79;96.05
82986;BME280;72786;53.546;9.910;2023-12-29T09:47:01;99697.94;;;8.89;96.13
82986;BME280;72786;53.546;9.910;2023-12-29T09:49:38;99717.75;;;8.92;96.06
82986;BME280;72786;53.546;9.910;2023-12-29T09:52:11;99698.16;;;8.92;95.62
82986;BME280;72786;53.546;9.910;2023-12-29T09:54:39;99702.78;;;8.96;95.66
82986;BME280;72786;53.546;9.910;2023-12-29T09:57:06;99656.00;;;8.77;95.32
82986;BME280;72786;53.546;9.910;2023-12-29T09:59:34;99668.28;;;8.81;95.40
82986;BME280;72786;53.546;9.910;2023-12-29T10:02:04;99703.19;;;9.12;95.08
82986;BME280;72786;53.546;9.910;2023-12-29T10:04:31;99702.06;;;9.08;94.08
82986;BME280;72786;53.546;9.910;2023-12-29T10:07:01;99690.06;;;9.07;94.27
82986;BME280;72786;53.546;9.910;2023-12-29T10:09:31;99680.16;;;9.12;94.74
82986;BME280;72786;53.546;9.910;2023-12-29T10:12:02;99686.94;;;9.11;93.09
82986;BME280;72786;53.546;9.910;2023-12-29T10:14:48;99697.44;;;9.14;94.20
82986;BME280;72786;53.546;9.910;2023-12-29T10:17:41;99694.03;;;9.04;92.80
82986;BME280;72786;53.546;9.910;2023-12-29T10:20:50;99688.38;;;9.08;93.79
82986;BME280;72786;53.546;9.910;2023-12-29T10:26:04;99676.44;;;9.08;93.20
82986;BME280;72786;53.546;9.910;2023-12-29T10:28:32;99680.13;;;9.22;93.20
82986;BME280;72786;53.546;9.910;2023-12-29T10:30:59;99629.88;;;9.02;92.44
82986;BME280;72786;53.546;9.910;2023-12-29T10:33:26;99688.22;;;9.38;92.55
82986;BME280;72786;53.546;9.910;2023-12-29T10:36:00;99671.16;;;9.38;92.24
82986;BME280;72786;53.546;9.910;2023-12-29T10:38:31;99702.94;;;9.40;91.06
82986;BME280;72786;53.546;9.910;2023-12-29T10:43:37;99662.06;;;9.20;90.88
82986;BME280;72786;53.546;9.910;2023-12-29T10:46:08;99673.81;;;9.28;90.98
82986;BME280;72786;53.546;9.910;2023-12-29T10:48:35;99679.44;;;9.24;90.84
82986;BME280;72786;53.546;9.910;2023-12-29T10:51:03;99688.94;;;9.25;91.30
82986;BME280;72786;53.546;9.910;2023-12-29T10:53:34;99635.47;;;9.08;91.33
82986;BME280;72786;53.546;9.910;2023-12-29T10:56:16;99636.31;;;9.19;90.46
82986;BME280;72786;53.546;9.910;2023-12-29T10:58:57;99687.31;;;9.37;90.66
82986;BME280;72786;53.546;9.910;2023-12-29T11:01:23;99680.19;;;9.33;90.60
82986;BME280;72786;53.546;9.910;2023-12-29T11:04:04;99635.47;;;9.08;90.73
82986;BME280;72786;53.546;9.910;2023-12-29T11:06:41;99674.81;;;9.30;90.56
82986;BME280;72786;53.546;9.910;2023-12-29T11:09:11;99666.81;;;9.37;90.88
82986;BME280;72786;53.546;9.910;2023-12-29T11:11:38;99658.06;;;9.45;90.11
82986;BME280;72786;53.546;9.910;2023-12-29T11:14:05;99652.16;;;9.46;90.09
82986;BME280;72786;53.546;9.910;2023-12-29T11:16:31;99634.53;;;9.39;90.42
82986;BME280;72786;53.546;9.910;2023-12-29T11:18:58;99651.88;;;9.53;89.98
82986;BME280;72786;53.546;9.910;2023-12-29T11:21:26;99650.31;;;9.55;90.26
82986;BME280;72786;53.546;9.910;2023-12-29T11:23:54;99672.53;;;9.66;89.97
82986;BME280;72786;53.546;9.910;2023-12-29T11:26:20;99612.97;;;9.47;89.73
82986;BME280;72786;53.546;9.910;2023-12-29T11:28:47;99667.34;;;9.76;89.51
82986;BME280;72786;53.546;9.910;2023-12-29T11:31:18;99670.34;;;9.82;89.58
82986;BME280;72786;53.546;9.910;2023-12-29T11:33:51;99657.59;;;9.72;88.46
82986;BME280;72786;53.546;9.910;2023-12-29T11:36:23;99609.63;;;9.48;89.51
82986;BME280;72786;53.546;9.910;2023-12-29T11:39:16;99667.44;;;9.77;88.52
82986;BME280;72786;53.546;9.910;2023-12-29T11:41:54;99649.13;;;9.73;88.05
82986;BME280;72786;53.546;9.910;2023-12-29T11:44:26;99610.09;;;9.54;88.58
82986;BME280;72786;53.546;9.910;2023-12-29T11:46:53;99645.94;;;9.87;88.20
82986;BME280;72786;53.546;9.910;2023-12-29T11:49:20;99631.13;;;9.83;88.31
82986;BME280;72786;53.546;9.910;2023-12-29T11:51:47;99634.88;;;9.76;88.04
82986;BME280;72786;53.546;9.910;2023-12-29T11:54:23;99571.06;;;9.35;88.22
82986;BME280;72786;53.546;9.910;2023-12-29T11:56:50;99643.34;;;9.64;88.83
82986;BME280;72786;53.546;9.910;2023-12-29T11:59:21;99646.88;;;9.66;88.84
82986;BME280;72786;53.546;9.910;2023-12-29T12:01:59;99636.47;;;9.75;87.94
82986;BME280;72786;53.546;9.910;2023-12-29T12:04:42;99636.31;;;9.73;88.43
82986;BME280;72786;53.546;9.910;2023-12-29T12:12:54;99627.94;;;9.97;87.12
82986;BME280;72786;53.546;9.910;2023-12-29T12:17:57;99620.09;;;10.40;86.00
82986;BME280;72786;53.546;9.910;2023-12-29T12:20:24;99625.22;;;10.40;85.19
82986;BME280;72786;53.546;9.910;2023-12-29T12:23:01;99552.69;;;10.31;83.54
82986;BME280;72786;53.546;9.910;2023-12-29T12:25:29;99611.56;;;10.75;83.42
82986;BME280;72786;53.546;9.910;2023-12-29T12:27:57;99610.00;;;10.65;83.56
82986;BME280;72786;53.546;9.910;2023-12-29T12:30:24;99622.41;;;10.82;83.45
82986;BME280;72786;53.546;9.910;2023-12-29T12:33:00;99573.97;;;10.64;84.56
82986;BME280;72786;53.546;9.910;2023-12-29T12:35:27;99611.94;;;11.04;82.72
82986;BME280;72786;53.546;9.910;2023-12-29T12:38:13;99614.41;;;11.02;82.06
82986;BME280;72786;53.546;9.910;2023-12-29T12:40:40;99611.28;;;11.06;82.48
82986;BME280;72786;53.546;9.910;2023-12-29T12:43:07;99606.84;;;10.92;81.76
82986;BME280;72786;53.546;9.910;2023-12-29T12:45:42;99597.72;;;10.84;83.20
82986;BME280;72786;53.546;9.910;2023-12-29T12:48:18;99583.47;;;10.65;83.50
82986;BME280;72786;53.546;9.910;2023-12-29T12:50:46;99603.28;;;10.90;83.39
82986;BME280;72786;53.546;9.910;2023-12-29T12:53:14;99595.00;;;10.94;82.41
82986;BME280;72786;53.546;9.910;2023-12-29T12:55:50;99595.94;;;10.83;82.50
82986;BME280;72786;53.546;9.910;2023-12-29T12:58:18;99615.81;;;10.74;83.15
82986;BME280;72786;53.546;9.910;2023-12-29T13:00:47;99600.44;;;10.63;84.23
82986;BME280;72786;53.546;9.910;2023-12-29T13:03:18;99604.00;;;10.53;84.21
82986;BME280;72786;53.546;9.910;2023-12-29T13:05:44;99602.00;;;10.50;85.21
82986;BME280;72786;53.546;9.910;2023-12-29T13:08:11;99557.16;;;10.22;84.55
82986;BME280;72786;53.546;9.910;2023-12-29T13:10:41;99603.78;;;10.51;84.17
82986;BME280;72786;53.546;9.910;2023-12-29T13:13:11;99602.22;;;10.41;84.28
82986;BME280;72786;53.546;9.910;2023-12-29T13:15:51;99564.75;;;10.09;84.74
82986;BME280;72786;53.546;9.910;2023-12-29T13:18:30;99612.94;;;10.36;86.01
82986;BME280;72786;53.546;9.910;2023-12-29T13:21:03;99611.03;;;10.22;86.74
82986;BME280;72786;53.546;9.910;2023-12-29T13:23:30;99570.72;;;9.86;88.11
82986;BME280;72786;53.546;9.910;2023-12-29T13:25:58;99582.28;;;9.70;91.05
82986;BME280;72786;53.546;9.910;2023-12-29T13:28:26;99587.28;;;9.57;91.64